Time;durP1;ratioP1;P1;durP2;ratioP2;P2;SDS_P1;SDS_P2;PMS_P1;PMS_P2;Temp;Humidity;BMP_temperature;BMP_pressure;BME280_temperature;BME280_humidity;BME280_pressure;Samples;Min_cycle;Max_cycle;Signal;HPM_P1;HPM_P2
2024/04/11 00:01:37;;;;;;;4.90;4.35;;;;;;;;;;11191336;25;20025;-58
2024/04/11 00:06:41;;;;;;;8.27;4.22;;;;;;;;;;11188224;25;20034;-55
2024/04/11 00:11:44;;;;;;;6.35;3.97;;;;;;;;;;11189506;25;20478;-56
2024/04/11 00:16:44;;;;;;;5.85;4.45;;;;;;;;;;11186313;25;20043;-58
2024/04/11 00:21:48;;;;;;;7.55;4.72;;;;;;;;;;11196614;25;20026;-58
2024/04/11 00:26:51;;;;;;;6.70;4.68;;;;;;;;;;11189933;25;20119;-57
2024/04/11 00:31:51;;;;;;;8.30;5.57;;;;;;;;;;11189054;25;20041;-58
2024/04/11 00:36:53;;;;;;;9.55;6.10;;;;;;;;;;11192255;25;20038;-58
2024/04/11 00:41:56;;;;;;;10.13;4.97;;;;;;;;;;11193855;25;20045;-58
2024/04/11 00:46:58;;;;;;;5.60;4.60;;;;;;;;;;11190280;25;20029;-57
2024/04/11 00:51:58;;;;;;;9.45;4.63;;;;;;;;;;11190489;25;20026;-58
2024/04/11 00:57:03;;;;;;;5.80;4.50;;;;;;;;;;11189467;25;20030;-58
2024/04/11 01:02:04;;;;;;;;;;;;;;;;;;11194230;25;20378;-58
2024/04/11 01:07:11;;;;;;;8.98;4.88;;;;;;;;;;11194004;25;20401;-58
2024/04/11 01:12:16;;;;;;;5.55;4.82;;;;;;;;;;11193427;25;20025;-58
2024/04/11 01:17:17;;;;;;;5.93;5.32;;;;;;;;;;11184443;25;20046;-58
2024/04/11 01:22:19;;;;;;;7.32;5.28;;;;;;;;;;11188435;25;20266;-57
2024/04/11 01:27:24;;;;;;;6.43;4.93;;;;;;;;;;11182476;25;19997;-58
2024/04/11 01:32:24;;;;;;;6.15;5.43;;;;;;;;;;11173869;25;19999;-58
2024/04/11 01:37:26;;;;;;;8.23;5.60;;;;;;;;;;11174948;25;20013;-59
2024/04/11 01:42:29;;;;;;;7.72;5.28;;;;;;;;;;11179199;25;20030;-58
2024/04/11 01:47:29;;;;;;;7.70;6.17;;;;;;;;;;11181359;25;20488;-58
2024/04/11 01:52:30;;;;;;;8.73;5.90;;;;;;;;;;11191451;25;20255;-57
2024/04/11 01:57:34;;;;;;;8.35;6.60;;;;;;;;;;11190118;25;20034;-58
2024/04/11 02:02:34;;;;;;;8.82;6.25;;;;;;;;;;11183117;25;20464;-58
2024/04/11 02:07:35;;;;;;;10.52;6.22;;;;;;;;;;11187550;25;20043;-58
2024/04/11 02:12:38;;;;;;;9.15;5.95;;;;;;;;;;11185939;25;20030;-58
2024/04/11 02:17:38;;;;;;;9.07;6.05;;;;;;;;;;11187008;25;20494;-59
2024/04/11 02:22:40;;;;;;;6.63;5.32;;;;;;;;;;11196119;25;20033;-56
2024/04/11 02:27:43;;;;;;;7.75;5.38;;;;;;;;;;11226348;25;20025;-58
2024/04/11 02:32:43;;;;;;;6.35;5.32;;;;;;;;;;11224553;25;20039;-58
2024/04/11 02:37:44;;;;;;;6.05;5.03;;;;;;;;;;11208729;25;20026;-58
2024/04/11 02:42:47;;;;;;;9.35;4.97;;;;;;;;;;11181479;25;20030;-56
2024/04/11 02:47:47;;;;;;;10.25;5.80;;;;;;;;;;11181992;25;20510;-58
2024/04/11 02:52:48;;;;;;;7.53;5.70;;;;;;;;;;11185574;25;20025;-57
2024/04/11 02:57:51;;;;;;;6.47;5.68;;;;;;;;;;11187412;25;20026;-57
2024/04/11 03:02:52;;;;;;;7.90;5.30;;;;;;;;;;11189037;25;20041;-59
2024/04/11 03:07:53;;;;;;;7.00;5.40;;;;;;;;;;11186012;25;20057;-58
2024/04/11 03:12:56;;;;;;;8.68;5.68;;;;;;;;;;11187598;25;20034;-57
2024/04/11 03:17:57;;;;;;;6.70;6.03;;;;;;;;;;11176278;25;20038;-58
2024/04/11 03:22:57;;;;;;;6.70;5.38;;;;;;;;;;11179217;25;20035;-57
2024/04/11 03:28:01;;;;;;;11.40;6.55;;;;;;;;;;11185882;25;20026;-57
2024/04/11 03:33:01;;;;;;;7.07;6.33;;;;;;;;;;11186785;25;20030;-59
2024/04/11 03:38:02;;;;;;;7.95;5.85;;;;;;;;;;11187280;25;20037;-58
2024/04/11 03:43:05;;;;;;;7.47;5.88;;;;;;;;;;11190869;25;20035;-58
2024/04/11 03:48:06;;;;;;;7.10;5.20;;;;;;;;;;11185635;25;20029;-58
2024/04/11 03:53:06;;;;;;;12.48;6.70;;;;;;;;;;11191299;25;20033;-59
2024/04/11 03:58:10;;;;;;;8.48;6.07;;;;;;;;;;11193895;25;20025;-58
2024/04/11 04:03:10;;;;;;;10.10;6.93;;;;;;;;;;11200090;25;20030;-58
2024/04/11 04:08:11;;;;;;;9.80;7.20;;;;;;;;;;11189865;25;20041;-58
2024/04/11 04:13:13;;;;;;;14.70;6.25;;;;;;;;;;11188779;25;20042;-57
2024/04/11 04:18:15;;;;;;;11.38;6.63;;;;;;;;;;11190896;25;20034;-59
2024/04/11 04:23:15;;;;;;;8.13;6.47;;;;;;;;;;11196237;25;20038;-56
2024/04/11 04:28:19;;;;;;;11.20;6.85;;;;;;;;;;11196792;25;20030;-54
2024/04/11 04:33:20;;;;;;;10.27;6.75;;;;;;;;;;11193732;25;20371;-56
2024/04/11 04:38:21;;;;;;;16.23;7.30;;;;;;;;;;11189539;25;20040;-57
2024/04/11 04:43:24;;;;;;;14.00;7.55;;;;;;;;;;11190765;25;20038;-58
2024/04/11 04:48:24;;;;;;;14.32;6.20;;;;;;;;;;11184921;25;20534;-58
2024/04/11 04:53:25;;;;;;;16.55;10.15;;;;;;;;;;11196094;25;20026;-58
2024/04/11 04:58:28;;;;;;;12.40;8.32;;;;;;;;;;11188875;25;20002;-58
2024/04/11 05:03:31;;;;;;;20.23;8.73;;;;;;;;;;11181503;25;20012;-58
2024/04/11 05:08:32;;;;;;;13.43;7.20;;;;;;;;;;11179065;25;20012;-59
2024/04/11 05:13:37;;;;;;;15.60;7.70;;;;;;;;;;11184188;25;20026;-59
2024/04/11 05:18:39;;;;;;;28.88;13.25;;;;;;;;;;11188777;25;20487;-59
2024/04/11 05:23:42;;;;;;;30.75;12.40;;;;;;;;;;11182704;25;19994;-59
2024/04/11 05:28:46;;;;;;;21.65;11.85;;;;;;;;;;11181479;25;20002;-58
2024/04/11 05:33:47;;;;;;;16.63;10.05;;;;;;;;;;11186883;25;20724;-59
2024/04/11 05:38:48;;;;;;;33.88;12.25;;;;;;;;;;11177706;25;20029;-59
2024/04/11 05:43:51;;;;;;;23.15;14.57;;;;;;;;;;11197618;25;20079;-58
2024/04/11 05:48:52;;;;;;;14.95;7.68;;;;;;;;;;11185690;25;20038;-58
2024/04/11 05:53:53;;;;;;;20.05;8.35;;;;;;;;;;11189343;25;20026;-58
2024/04/11 05:58:56;;;;;;;13.35;7.72;;;;;;;;;;11189598;25;20491;-55
2024/04/11 06:03:57;;;;;;;10.25;6.93;;;;;;;;;;11189878;25;20038;-59
2024/04/11 06:09:00;;;;;;;11.02;6.65;;;;;;;;;;11195274;25;20034;-57
2024/04/11 06:14:05;;;;;;;7.50;6.37;;;;;;;;;;11183090;25;20001;-58
2024/04/11 06:19:05;;;;;;;7.40;6.22;;;;;;;;;;11182584;25;20008;-58
2024/04/11 06:24:08;;;;;;;10.55;8.05;;;;;;;;;;11184645;25;20052;-58
2024/04/11 06:29:11;;;;;;;10.45;8.10;;;;;;;;;;11176425;25;20015;-58
2024/04/11 06:34:13;;;;;;;11.68;8.32;;;;;;;;;;11176263;25;20302;-58
2024/04/11 06:39:16;;;;;;;10.57;7.10;;;;;;;;;;11176773;25;20002;-58
2024/04/11 06:44:19;;;;;;;22.52;6.97;;;;;;;;;;11179262;25;20012;-58
2024/04/11 06:49:20;;;;;;;15.25;7.88;;;;;;;;;;11177786;25;19998;-58
2024/04/11 06:54:21;;;;;;;23.10;7.57;;;;;;;;;;11178654;25;19997;-57
2024/04/11 06:59:24;;;;;;;11.40;8.23;;;;;;;;;;11188544;25;20042;-58
2024/04/11 07:04:24;;;;;;;13.48;8.50;;;;;;;;;;11192053;25;20034;-58
2024/04/11 07:09:37;;;;;;;13.88;7.68;;;;;;;;;;11191206;25;20048;-58
2024/04/11 07:14:41;;;;;;;15.23;8.48;;;;;;;;;;11184722;25;20026;-58
2024/04/11 07:19:42;;;;;;;12.90;7.60;;;;;;;;;;11192086;25;20029;-58
2024/04/11 07:24:43;;;;;;;11.30;7.75;;;;;;;;;;11191998;25;20026;-58
2024/04/11 07:29:46;;;;;;;13.57;8.30;;;;;;;;;;11192948;25;20029;-58
2024/04/11 07:34:47;;;;;;;14.13;7.55;;;;;;;;;;11193365;25;20030;-58
2024/04/11 07:39:49;;;;;;;15.55;7.90;;;;;;;;;;11191998;25;20034;-58
2024/04/11 07:44:52;;;;;;;17.92;10.38;;;;;;;;;;11207960;25;20034;-58
2024/04/11 07:49:53;;;;;;;16.95;8.98;;;;;;;;;;11193517;25;20426;-59
2024/04/11 07:54:55;;;;;;;16.08;9.32;;;;;;;;;;11194174;25;20033;-59
2024/04/11 08:00:00;;;;;;;21.75;8.82;;;;;;;;;;11182541;25;20498;-58
2024/04/11 08:05:00;;;;;;;13.13;7.63;;;;;;;;;;11186102;25;20037;-59
2024/04/11 08:10:01;;;;;;;16.25;8.85;;;;;;;;;;11191260;25;20039;-59
2024/04/11 08:15:04;;;;;;;19.67;8.68;;;;;;;;;;11190031;25;20033;-59
2024/04/11 08:20:12;;;;;;;15.23;9.38;;;;;;;;;;11186474;25;20037;-59
2024/04/11 08:25:12;;;;;;;17.88;7.45;;;;;;;;;;11185948;25;20030;-59
2024/04/11 08:30:15;;;;;;;10.23;6.68;;;;;;;;;;11191440;25;20025;-62
2024/04/11 08:35:17;;;;;;;8.10;6.50;;;;;;;;;;11192781;25;20042;-59
2024/04/11 08:40:17;;;;;;;8.48;5.90;;;;;;;;;;11190938;25;20077;-59
2024/04/11 08:45:21;;;;;;;10.88;6.28;;;;;;;;;;11189588;25;20479;-58
2024/04/11 08:50:21;;;;;;;16.00;6.22;;;;;;;;;;11190769;25;20038;-59
2024/04/11 08:55:22;;;;;;;10.85;5.22;;;;;;;;;;11189587;25;20503;-59
2024/04/11 09:00:25;;;;;;;9.52;5.40;;;;;;;;;;11189304;25;20039;-59
2024/04/11 09:05:26;;;;;;;6.80;5.85;;;;;;;;;;11190128;25;20468;-59
2024/04/11 09:10:26;;;;;;;7.90;5.47;;;;;;;;;;11190795;25;20050;-60
2024/04/11 09:15:32;;;;;;;9.95;6.00;;;;;;;;;;11189070;25;20042;-59
2024/04/11 09:20:32;;;;;;;;;;;;;;;;;;11190637;25;20041;-59
2024/04/11 09:25:34;;;;;;;8.85;5.38;;;;;;;;;;11190284;25;19948;-60
2024/04/11 09:30:39;;;;;;;11.05;5.55;;;;;;;;;;11189165;25;20046;-59
2024/04/11 09:35:41;;;;;;;11.27;5.32;;;;;;;;;;11188496;25;20050;-59
2024/04/11 09:40:44;;;;;;;9.95;5.40;;;;;;;;;;11188244;25;20065;-59
2024/04/11 09:45:50;;;;;;;8.45;5.03;;;;;;;;;;11188898;25;20038;-59
2024/04/11 09:50:54;;;;;;;16.55;6.00;;;;;;;;;;11183174;25;20030;-59
2024/04/11 09:55:56;;;;;;;6.55;5.65;;;;;;;;;;11182872;25;20361;-59
2024/04/11 10:01:09;;;;;;;7.78;6.65;;;;;;;;;;11186563;25;20457;-59
2024/04/11 10:06:16;;;;;;;10.05;5.78;;;;;;;;;;11190059;25;20360;-59
2024/04/11 10:11:18;;;;;;;12.52;6.75;;;;;;;;;;11189081;25;20029;-58
2024/04/11 10:16:28;;;;;;;9.48;6.70;;;;;;;;;;11180020;25;20039;-59
2024/04/11 10:21:29;;;;;;;18.67;6.90;;;;;;;;;;11179378;25;20030;-59
2024/04/11 10:26:47;;;;;;;13.65;6.03;;;;;;;;;;11181936;25;20039;-59
2024/04/11 10:31:52;;;;;;;;;;;;;;;;;;11188016;25;20068;-59
2024/04/11 10:37:03;;;;;;;13.73;6.63;;;;;;;;;;11188507;25;19947;-59
2024/04/11 10:42:07;;;;;;;13.50;5.70;;;;;;;;;;11181310;25;20198;-59
2024/04/11 10:47:13;;;;;;;11.10;5.90;;;;;;;;;;11179408;25;19998;-59
2024/04/11 10:52:19;;;;;;;11.88;7.28;;;;;;;;;;11185162;25;20034;-58
2024/04/11 10:57:20;;;;;;;14.32;5.70;;;;;;;;;;11180321;25;20039;-59
2024/04/11 11:02:23;;;;;;;16.20;5.97;;;;;;;;;;11188082;25;20026;-58
2024/04/11 11:07:31;;;;;;;20.70;7.03;;;;;;;;;;11188112;25;20029;-59
2024/04/11 11:12:37;;;;;;;11.68;5.38;;;;;;;;;;11184372;25;20026;-60
2024/04/11 11:17:39;;;;;;;9.32;5.53;;;;;;;;;;11185443;25;20038;-59
2024/04/11 11:22:44;;;;;;;9.40;5.30;;;;;;;;;;11185254;25;20057;-60
2024/04/11 11:27:45;;;;;;;;;;;;;;;;;;11213345;25;20034;-60
2024/04/11 11:32:49;;;;;;;11.93;5.88;;;;;;;;;;11184106;25;19948;-59
2024/04/11 11:37:54;;;;;;;10.77;5.32;;;;;;;;;;11176226;25;20435;-59
2024/04/11 11:42:56;;;;;;;9.38;5.63;;;;;;;;;;11179065;25;20030;-58
2024/04/11 11:47:57;;;;;;;12.40;5.53;;;;;;;;;;11183167;25;20030;-59
2024/04/11 11:53:24;;;;;;;11.30;5.45;;;;;;;;;;11191126;25;20033;-58
2024/04/11 11:58:23;;;;;;;8.52;5.45;;;;;;;;;;11191422;25;20033;-58
2024/04/11 12:03:24;;;;;;;13.65;5.03;;;;;;;;;;11196060;25;20488;-58
2024/04/11 12:08:37;;;;;;;8.27;5.78;;;;;;;;;;11182141;25;20038;-59
2024/04/11 12:13:42;;;;;;;6.63;5.80;;;;;;;;;;11185804;25;20033;-59
2024/04/11 12:18:43;;;;;;;;;;;;;;;;;;11185497;25;20135;-60
2024/04/11 12:23:47;;;;;;;9.57;5.43;;;;;;;;;;11189926;25;19953;-60
2024/04/11 12:28:50;;;;;;;15.20;6.53;;;;;;;;;;11192261;25;20026;-59
2024/04/11 12:33:51;;;;;;;11.70;5.95;;;;;;;;;;11190988;25;20029;-59
2024/04/11 12:38:56;;;;;;;9.32;5.40;;;;;;;;;;11189892;25;20033;-59
2024/04/11 12:43:57;;;;;;;8.18;5.20;;;;;;;;;;11190453;25;20038;-59
2024/04/11 12:48:58;;;;;;;9.20;5.60;;;;;;;;;;11190346;25;20030;-58
2024/04/11 12:54:03;;;;;;;14.77;6.63;;;;;;;;;;11189246;25;20026;-58
2024/04/11 12:59:05;;;;;;;13.00;5.57;;;;;;;;;;11189220;25;20030;-58
2024/04/11 13:04:08;;;;;;;11.98;5.13;;;;;;;;;;11189435;25;20310;-59
2024/04/11 13:09:18;;;;;;;14.07;4.87;;;;;;;;;;11192052;25;20038;-59
2024/04/11 13:14:27;;;;;;;14.18;6.18;;;;;;;;;;11189305;25;20037;-59
2024/04/11 13:19:34;;;;;;;13.52;5.20;;;;;;;;;;11188738;25;20026;-57
2024/04/11 13:24:42;;;;;;;14.57;4.75;;;;;;;;;;11183789;25;20392;-59
2024/04/11 13:29:48;;;;;;;8.43;4.20;;;;;;;;;;11182459;25;20034;-59
2024/04/11 13:35:03;;;;;;;12.05;4.88;;;;;;;;;;11188514;25;20034;-59
2024/04/11 13:45:26;;;;;;;14.60;5.35;;;;;;;;;;11190304;25;20034;-58
2024/04/11 13:50:44;;;;;;;6.53;4.35;;;;;;;;;;11189640;25;20558;-58
2024/04/11 13:55:53;;;;;;;9.88;4.35;;;;;;;;;;11189793;25;20042;-58
2024/04/11 14:01:02;;;;;;;11.90;4.50;;;;;;;;;;11183729;25;20030;-59
2024/04/11 14:06:06;;;;;;;9.07;3.53;;;;;;;;;;11185163;25;20038;-58
2024/04/11 14:11:09;;;;;;;;;;;;;;;;;;11179922;25;20450;-59
2024/04/11 14:16:12;;;;;;;14.73;4.15;;;;;;;;;;11180390;25;19923;-58
2024/04/11 14:21:33;;;;;;;11.23;4.47;;;;;;;;;;11180198;25;20030;-56
2024/04/11 14:26:52;;;;;;;11.32;4.45;;;;;;;;;;11179233;25;20041;-57
2024/04/11 14:31:55;;;;;;;13.27;5.05;;;;;;;;;;11183193;25;20037;-59
2024/04/11 14:37:31;;;;;;;10.65;5.90;;;;;;;;;;11190439;25;20022;-58
2024/04/11 14:42:45;;;;;;;14.75;4.65;;;;;;;;;;11179310;25;20025;-57
2024/04/11 14:47:51;;;;;;;7.85;5.32;;;;;;;;;;11180701;25;20034;-58
2024/04/11 14:52:58;;;;;;;12.43;4.93;;;;;;;;;;11181501;25;20038;-58
2024/04/11 14:57:58;;;;;;;9.82;5.07;;;;;;;;;;11185671;25;20043;-59
2024/04/11 15:03:02;;;;;;;26.77;12.70;;;;;;;;;;11185371;25;20034;-58
2024/04/11 15:08:03;;;;;;;12.15;5.82;;;;;;;;;;11177296;25;20042;-58
2024/04/11 15:13:05;;;;;;;9.80;5.38;;;;;;;;;;11183551;25;20030;-59
2024/04/11 15:18:11;;;;;;;14.07;4.47;;;;;;;;;;11186095;25;20026;-59
2024/04/11 15:23:12;;;;;;;9.00;4.57;;;;;;;;;;11185915;25;20030;-59
2024/04/11 15:28:22;;;;;;;11.30;4.38;;;;;;;;;;11194020;25;20491;-59
2024/04/11 15:33:29;;;;;;;6.22;3.88;;;;;;;;;;11183465;25;20081;-60
2024/04/11 15:38:38;;;;;;;6.15;4.05;;;;;;;;;;11191062;25;20001;-60
2024/04/11 15:43:39;;;;;;;6.65;4.05;;;;;;;;;;11183296;25;20030;-60
2024/04/11 15:48:47;;;;;;;8.70;4.65;;;;;;;;;;11188200;25;20031;-59
2024/04/11 15:53:59;;;;;;;9.13;4.97;;;;;;;;;;11179612;25;20012;-59
2024/04/11 15:59:08;;;;;;;8.75;5.22;;;;;;;;;;11184149;25;20037;-58
2024/04/11 16:04:15;;;;;;;9.23;4.88;;;;;;;;;;11192816;25;20033;-59
2024/04/11 16:09:17;;;;;;;10.43;5.22;;;;;;;;;;11190871;25;20034;-59
2024/04/11 16:14:19;;;;;;;13.80;5.95;;;;;;;;;;11189862;25;20488;-59
2024/04/11 16:19:27;;;;;;;14.85;5.60;;;;;;;;;;11185177;25;20041;-59
2024/04/11 16:24:40;;;;;;;8.07;5.07;;;;;;;;;;11184518;25;20457;-59
2024/04/11 16:29:41;;;;;;;8.25;4.82;;;;;;;;;;11171846;25;20440;-59
2024/04/11 16:34:46;;;;;;;13.30;5.90;;;;;;;;;;11181487;25;19998;-59
2024/04/11 16:39:50;;;;;;;9.73;5.05;;;;;;;;;;11181074;25;20013;-59
2024/04/11 16:45:24;;;;;;;11.90;5.20;;;;;;;;;;11180935;25;20008;-59
2024/04/11 16:50:14;;;;;;;10.30;5.82;;;;;;;;;;11186058;25;20821;-59
2024/04/11 16:55:26;;;;;;;17.20;10.97;;;;;;;;;;11182641;25;20882;-59
2024/04/11 17:00:30;;;;;;;27.02;16.80;;;;;;;;;;11187122;25;20034;-58
2024/04/11 17:05:40;;;;;;;25.27;14.33;;;;;;;;;;11183440;25;20030;-58
2024/04/11 17:10:43;;;;;;;14.10;8.05;;;;;;;;;;11188453;25;20034;-60
2024/04/11 17:16:06;;;;;;;19.70;12.33;;;;;;;;;;11190051;25;20038;-59
2024/04/11 17:21:18;;;;;;;48.33;25.73;;;;;;;;;;11193681;25;20038;-60
2024/04/11 17:26:19;;;;;;;21.58;12.20;;;;;;;;;;11182510;25;20025;-60
2024/04/11 17:31:33;;;;;;;16.17;6.53;;;;;;;;;;11187381;25;20030;-59
2024/04/11 17:36:36;;;;;;;12.67;5.87;;;;;;;;;;11187735;25;20029;-60
2024/04/11 17:41:41;;;;;;;8.88;5.88;;;;;;;;;;11189634;25;20026;-60
2024/04/11 17:46:55;;;;;;;14.68;6.05;;;;;;;;;;11187322;25;20381;-60
2024/04/11 17:51:58;;;;;;;18.83;6.43;;;;;;;;;;11188187;25;20376;-60
2024/04/11 17:57:02;;;;;;;13.23;5.78;;;;;;;;;;11187505;25;20030;-57
2024/04/11 18:02:04;;;;;;;13.20;6.13;;;;;;;;;;11188814;25;20030;-59
2024/04/11 18:07:09;;;;;;;10.85;5.78;;;;;;;;;;11186808;25;20038;-58
2024/04/11 18:12:13;;;;;;;11.75;5.80;;;;;;;;;;11187217;25;20037;-59
2024/04/11 18:17:14;;;;;;;15.93;6.05;;;;;;;;;;11185287;25;20034;-58
2024/04/11 18:22:23;;;;;;;26.58;7.15;;;;;;;;;;11183958;25;20037;-59
2024/04/11 18:27:25;;;;;;;15.75;6.78;;;;;;;;;;11180609;25;20025;-58
2024/04/11 18:32:30;;;;;;;17.25;9.07;;;;;;;;;;11194046;25;20124;-58
2024/04/11 18:37:34;;;;;;;10.63;7.80;;;;;;;;;;11194916;25;20328;-59
2024/04/11 18:42:37;;;;;;;12.38;6.63;;;;;;;;;;11178325;25;20364;-58
2024/04/11 18:47:42;;;;;;;10.18;5.82;;;;;;;;;;11187887;25;20029;-58
2024/04/11 18:52:46;;;;;;;10.52;5.90;;;;;;;;;;11185114;26;20038;-59
2024/04/11 18:57:49;;;;;;;8.20;5.63;;;;;;;;;;11174236;25;19997;-58
2024/04/11 19:02:53;;;;;;;11.70;5.50;;;;;;;;;;11185151;25;20038;-58
2024/04/11 19:07:59;;;;;;;10.32;7.43;;;;;;;;;;11182358;25;20022;-59
2024/04/11 19:12:59;;;;;;;13.40;6.93;;;;;;;;;;11186672;25;20025;-59
2024/04/11 19:18:00;;;;;;;8.95;5.78;;;;;;;;;;11190827;25;20021;-59
2024/04/11 19:23:04;;;;;;;10.27;7.15;;;;;;;;;;11184684;25;20034;-59
2024/04/11 19:28:13;;;;;;;14.88;6.97;;;;;;;;;;11186185;25;20495;-59
2024/04/11 19:33:24;;;;;;;11.32;6.90;;;;;;;;;;11182144;25;20030;-59
2024/04/11 19:38:37;;;;;;;15.55;7.63;;;;;;;;;;11198574;25;20031;-58
2024/04/11 19:43:38;;;;;;;13.52;8.43;;;;;;;;;;11183359;26;20362;-57
2024/04/11 19:48:39;;;;;;;18.13;7.85;;;;;;;;;;11184819;25;20033;-58
2024/04/11 19:53:44;;;;;;;14.45;8.30;;;;;;;;;;11171970;25;20037;-59
2024/04/11 19:58:55;;;;;;;21.58;8.60;;;;;;;;;;11186985;25;20049;-57
2024/04/11 20:03:56;;;;;;;16.15;7.97;;;;;;;;;;11180682;25;20084;-58
2024/04/11 20:09:12;;;;;;;10.95;6.25;;;;;;;;;;11184218;25;20029;-58
2024/04/11 20:14:32;;;;;;;11.17;6.97;;;;;;;;;;11188917;25;20033;-58
2024/04/11 20:19:39;;;;;;;12.98;6.65;;;;;;;;;;11190720;25;20273;-59
2024/04/11 20:24:52;;;;;;;8.25;5.93;;;;;;;;;;11190544;25;20663;-58
2024/04/11 20:29:54;;;;;;;6.67;4.90;;;;;;;;;;11192368;25;20030;-58
2024/04/11 20:35:04;;;;;;;8.05;5.20;;;;;;;;;;11182473;25;20484;-59
2024/04/11 20:40:10;;;;;;;11.63;5.95;;;;;;;;;;11184908;25;20025;-58
2024/04/11 20:45:25;;;;;;;13.15;5.30;;;;;;;;;;11192544;25;20038;-58
2024/04/11 21:38:01;;;;;;;11.70;7.75;;;;;;;;;;11192070;25;20026;-58
2024/04/11 21:43:05;;;;;;;13.13;5.85;;;;;;;;;;11180155;25;20489;-57
2024/04/11 21:48:09;;;;;;;;;;;;;;;;;;11180915;25;20034;-58
2024/04/11 21:53:16;;;;;;;9.82;6.53;;;;;;;;;;11187674;25;19952;-59
2024/04/11 21:58:21;;;;;;;10.55;7.22;;;;;;;;;;11189119;25;20041;-58
2024/04/11 22:03:23;;;;;;;14.45;7.60;;;;;;;;;;11187233;25;20022;-58
2024/04/11 22:08:30;;;;;;;13.48;7.50;;;;;;;;;;11187455;25;20050;-59
2024/04/11 22:13:36;;;;;;;14.80;7.72;;;;;;;;;;11179635;25;20029;-58
2024/04/11 22:18:39;;;;;;;8.73;6.80;;;;;;;;;;11182629;25;20351;-58
2024/04/11 22:23:44;;;;;;;12.03;8.00;;;;;;;;;;11190899;25;20034;-58
2024/04/11 22:28:53;;;;;;;10.82;7.03;;;;;;;;;;11187230;25;20472;-58
2024/04/11 22:33:59;;;;;;;14.05;7.32;;;;;;;;;;11199770;25;20041;-58
2024/04/11 22:39:00;;;;;;;13.82;7.30;;;;;;;;;;11184014;25;20034;-59
2024/04/11 22:44:04;;;;;;;8.93;6.28;;;;;;;;;;11172357;25;20016;-59
2024/04/11 22:49:11;;;;;;;11.10;6.93;;;;;;;;;;11175894;25;20359;-59
2024/04/11 22:54:17;;;;;;;8.55;6.47;;;;;;;;;;11170483;25;19998;-59
2024/04/11 22:59:34;;;;;;;12.88;6.18;;;;;;;;;;11173042;25;19997;-59
2024/04/11 23:04:42;;;;;;;19.20;6.78;;;;;;;;;;11178693;25;20458;-59
2024/04/11 23:09:53;;;;;;;8.88;6.53;;;;;;;;;;11171489;25;20008;-59
2024/04/11 23:15:10;;;;;;;10.60;6.65;;;;;;;;;;11176679;25;20030;-59
2024/04/11 23:20:23;;;;;;;15.25;7.25;;;;;;;;;;11183797;25;20038;-60
2024/04/11 23:25:25;;;;;;;11.02;7.03;;;;;;;;;;11182283;25;20038;-58
2024/04/11 23:30:37;;;;;;;12.30;7.07;;;;;;;;;;11185595;25;20922;-59
2024/04/11 23:35:38;;;;;;;13.10;6.75;;;;;;;;;;11188133;25;20045;-59
2024/04/11 23:40:44;;;;;;;10.65;7.82;;;;;;;;;;11183790;25;20387;-59
2024/04/11 23:45:58;;;;;;;11.75;6.63;;;;;;;;;;11183916;25;20045;-59
2024/04/11 23:51:01;;;;;;;21.15;6.93;;;;;;;;;;11190019;25;20360;-59
